sensor_id;sensor_type;location;lat;lon;timestamp;P1;durP1;ratioP1;P2;durP2;ratioP2
23222;SDS011;11780;13.904;100.620;2024-02-26T00:01:05;19.33;;;17.25;;
23222;SDS011;11780;13.904;100.620;2024-02-26T00:03:36;26.58;;;20.25;;
23222;SDS011;11780;13.904;100.620;2024-02-26T00:06:07;22.77;;;19.10;;
23222;SDS011;11780;13.904;100.620;2024-02-26T00:08:37;28.60;;;23.60;;
23222;SDS011;11780;13.904;100.620;2024-02-26T00:11:08;28.73;;;21.88;;
23222;SDS011;11780;13.904;100.620;2024-02-26T00:13:39;33.00;;;23.88;;
23222;SDS011;11780;13.904;100.620;2024-02-26T00:16:10;32.45;;;23.08;;
23222;SDS011;11780;13.904;100.620;2024-02-26T00:18:41;28.52;;;21.00;;
23222;SDS011;11780;13.904;100.620;2024-02-26T00:21:15;24.02;;;20.83;;
23222;SDS011;11780;13.904;100.620;2024-02-26T00:26:17;22.98;;;19.50;;
23222;SDS011;11780;13.904;100.620;2024-02-26T00:28:48;27.27;;;19.85;;
23222;SDS011;11780;13.904;100.620;2024-02-26T00:31:19;25.38;;;20.50;;
23222;SDS011;11780;13.904;100.620;2024-02-26T00:33:50;27.27;;;20.65;;
23222;SDS011;11780;13.904;100.620;2024-02-26T00:36:21;26.52;;;20.58;;
23222;SDS011;11780;13.904;100.620;2024-02-26T00:38:52;32.72;;;23.40;;
23222;SDS011;11780;13.904;100.620;2024-02-26T00:41:22;26.80;;;22.15;;
23222;SDS011;11780;13.904;100.620;2024-02-26T00:43:54;29.63;;;25.25;;
23222;SDS011;11780;13.904;100.620;2024-02-26T00:46:25;32.97;;;25.10;;
23222;SDS011;11780;13.904;100.620;2024-02-26T00:48:56;29.98;;;25.30;;
23222;SDS011;11780;13.904;100.620;2024-02-26T00:51:27;29.13;;;24.42;;
23222;SDS011;11780;13.904;100.620;2024-02-26T00:53:57;26.50;;;22.27;;
23222;SDS011;11780;13.904;100.620;2024-02-26T00:56:28;26.98;;;21.92;;
23222;SDS011;11780;13.904;100.620;2024-02-26T00:58:59;27.23;;;21.20;;
23222;SDS011;11780;13.904;100.620;2024-02-26T01:01:30;26.92;;;19.40;;
23222;SDS011;11780;13.904;100.620;2024-02-26T01:04:00;25.23;;;19.58;;
23222;SDS011;11780;13.904;100.620;2024-02-26T01:06:33;24.58;;;18.48;;
23222;SDS011;11780;13.904;100.620;2024-02-26T01:09:04;33.17;;;20.55;;
23222;SDS011;11780;13.904;100.620;2024-02-26T01:11:35;29.00;;;22.00;;
23222;SDS011;11780;13.904;100.620;2024-02-26T01:14:06;25.35;;;18.67;;
23222;SDS011;11780;13.904;100.620;2024-02-26T01:16:37;24.17;;;18.65;;
23222;SDS011;11780;13.904;100.620;2024-02-26T01:19:08;21.92;;;18.73;;
23222;SDS011;11780;13.904;100.620;2024-02-26T01:21:38;21.75;;;17.50;;
23222;SDS011;11780;13.904;100.620;2024-02-26T01:24:09;20.63;;;16.88;;
23222;SDS011;11780;13.904;100.620;2024-02-26T01:26:40;20.60;;;17.90;;
23222;SDS011;11780;13.904;100.620;2024-02-26T01:29:11;19.43;;;17.17;;
23222;SDS011;11780;13.904;100.620;2024-02-26T01:31:42;25.05;;;18.13;;
23222;SDS011;11780;13.904;100.620;2024-02-26T01:34:15;23.55;;;17.55;;
23222;SDS011;11780;13.904;100.620;2024-02-26T01:36:47;22.80;;;17.17;;
23222;SDS011;11780;13.904;100.620;2024-02-26T01:41:49;23.10;;;17.95;;
23222;SDS011;11780;13.904;100.620;2024-02-26T01:44:21;22.08;;;17.55;;
23222;SDS011;11780;13.904;100.620;2024-02-26T01:46:51;23.67;;;18.30;;
23222;SDS011;11780;13.904;100.620;2024-02-26T01:49:23;24.23;;;17.65;;
23222;SDS011;11780;13.904;100.620;2024-02-26T01:51:54;20.75;;;17.90;;
23222;SDS011;11780;13.904;100.620;2024-02-26T01:54:25;22.02;;;17.45;;
23222;SDS011;11780;13.904;100.620;2024-02-26T01:56:56;18.95;;;16.63;;
23222;SDS011;11780;13.904;100.620;2024-02-26T01:59:27;18.48;;;16.45;;
23222;SDS011;11780;13.904;100.620;2024-02-26T02:01:59;20.35;;;16.33;;
23222;SDS011;11780;13.904;100.620;2024-02-26T02:04:35;22.27;;;17.83;;
23222;SDS011;11780;13.904;100.620;2024-02-26T02:07:06;24.73;;;19.40;;
23222;SDS011;11780;13.904;100.620;2024-02-26T02:12:08;19.52;;;17.33;;
23222;SDS011;11780;13.904;100.620;2024-02-26T02:14:39;20.75;;;16.98;;
23222;SDS011;11780;13.904;100.620;2024-02-26T02:17:11;23.83;;;17.00;;
23222;SDS011;11780;13.904;100.620;2024-02-26T02:19:42;25.08;;;17.90;;
23222;SDS011;11780;13.904;100.620;2024-02-26T02:22:12;19.55;;;17.52;;
23222;SDS011;11780;13.904;100.620;2024-02-26T02:24:43;21.48;;;19.33;;
23222;SDS011;11780;13.904;100.620;2024-02-26T02:27:15;19.67;;;16.58;;
23222;SDS011;11780;13.904;100.620;2024-02-26T02:29:45;18.75;;;16.85;;
23222;SDS011;11780;13.904;100.620;2024-02-26T02:32:17;21.83;;;17.15;;
23222;SDS011;11780;13.904;100.620;2024-02-26T02:34:49;33.90;;;17.25;;
23222;SDS011;11780;13.904;100.620;2024-02-26T02:37:21;25.88;;;17.85;;
23222;SDS011;11780;13.904;100.620;2024-02-26T02:39:51;26.02;;;17.52;;
23222;SDS011;11780;13.904;100.620;2024-02-26T02:42:24;22.70;;;17.88;;
23222;SDS011;11780;13.904;100.620;2024-02-26T02:44:56;23.88;;;18.98;;
23222;SDS011;11780;13.904;100.620;2024-02-26T02:47:27;27.63;;;20.55;;
23222;SDS011;11780;13.904;100.620;2024-02-26T02:49:58;25.30;;;19.42;;
23222;SDS011;11780;13.904;100.620;2024-02-26T02:52:28;28.57;;;20.50;;
23222;SDS011;11780;13.904;100.620;2024-02-26T02:54:59;25.02;;;20.70;;
23222;SDS011;11780;13.904;100.620;2024-02-26T02:57:31;26.75;;;20.17;;
23222;SDS011;11780;13.904;100.620;2024-02-26T03:00:03;32.05;;;23.55;;
23222;SDS011;11780;13.904;100.620;2024-02-26T03:02:34;25.67;;;21.33;;
23222;SDS011;11780;13.904;100.620;2024-02-26T03:05:08;26.75;;;20.65;;
23222;SDS011;11780;13.904;100.620;2024-02-26T03:07:39;25.58;;;21.17;;
23222;SDS011;11780;13.904;100.620;2024-02-26T03:10:10;25.60;;;19.67;;
23222;SDS011;11780;13.904;100.620;2024-02-26T03:12:40;22.47;;;20.17;;
23222;SDS011;11780;13.904;100.620;2024-02-26T03:15:11;22.50;;;20.03;;
23222;SDS011;11780;13.904;100.620;2024-02-26T03:20:13;27.27;;;21.55;;
23222;SDS011;11780;13.904;100.620;2024-02-26T03:25:15;28.02;;;21.90;;
23222;SDS011;11780;13.904;100.620;2024-02-26T03:27:46;32.17;;;22.73;;
23222;SDS011;11780;13.904;100.620;2024-02-26T03:30:18;28.55;;;22.88;;
23222;SDS011;11780;13.904;100.620;2024-02-26T03:32:49;27.33;;;22.27;;
23222;SDS011;11780;13.904;100.620;2024-02-26T03:35:20;24.15;;;21.63;;
23222;SDS011;11780;13.904;100.620;2024-02-26T03:37:50;23.83;;;21.13;;
23222;SDS011;11780;13.904;100.620;2024-02-26T03:40:21;33.67;;;23.08;;
23222;SDS011;11780;13.904;100.620;2024-02-26T03:42:52;27.95;;;23.27;;
23222;SDS011;11780;13.904;100.620;2024-02-26T03:45:23;28.23;;;24.55;;
23222;SDS011;11780;13.904;100.620;2024-02-26T03:47:55;25.88;;;23.13;;
23222;SDS011;11780;13.904;100.620;2024-02-26T03:50:26;25.85;;;22.83;;
23222;SDS011;11780;13.904;100.620;2024-02-26T03:52:57;29.67;;;23.73;;
23222;SDS011;11780;13.904;100.620;2024-02-26T03:57:59;49.63;;;35.33;;
23222;SDS011;11780;13.904;100.620;2024-02-26T04:00:30;47.58;;;35.17;;
23222;SDS011;11780;13.904;100.620;2024-02-26T04:05:32;53.95;;;37.72;;
23222;SDS011;11780;13.904;100.620;2024-02-26T04:08:03;49.05;;;36.60;;
23222;SDS011;11780;13.904;100.620;2024-02-26T04:10:36;49.60;;;33.13;;
23222;SDS011;11780;13.904;100.620;2024-02-26T04:13:10;43.10;;;31.98;;
23222;SDS011;11780;13.904;100.620;2024-02-26T04:15:41;38.97;;;30.02;;
23222;SDS011;11780;13.904;100.620;2024-02-26T04:18:12;39.38;;;30.30;;
23222;SDS011;11780;13.904;100.620;2024-02-26T04:20:44;39.20;;;31.05;;
23222;SDS011;11780;13.904;100.620;2024-02-26T04:23:14;38.33;;;30.98;;
23222;SDS011;11780;13.904;100.620;2024-02-26T04:25:45;37.05;;;29.73;;
23222;SDS011;11780;13.904;100.620;2024-02-26T04:30:47;32.83;;;29.27;;
23222;SDS011;11780;13.904;100.620;2024-02-26T04:33:18;37.55;;;29.55;;
23222;SDS011;11780;13.904;100.620;2024-02-26T04:35:48;37.72;;;30.27;;
23222;SDS011;11780;13.904;100.620;2024-02-26T04:38:19;41.60;;;30.38;;
23222;SDS011;11780;13.904;100.620;2024-02-26T04:40:50;36.60;;;31.25;;
23222;SDS011;11780;13.904;100.620;2024-02-26T04:43:22;41.28;;;32.63;;
23222;SDS011;11780;13.904;100.620;2024-02-26T04:45:53;40.50;;;32.22;;
23222;SDS011;11780;13.904;100.620;2024-02-26T04:48:24;36.90;;;30.90;;
23222;SDS011;11780;13.904;100.620;2024-02-26T04:50:55;38.73;;;31.73;;
23222;SDS011;11780;13.904;100.620;2024-02-26T04:53:26;36.03;;;29.90;;
23222;SDS011;11780;13.904;100.620;2024-02-26T04:55:56;34.40;;;30.77;;
23222;SDS011;11780;13.904;100.620;2024-02-26T04:58:28;34.42;;;30.77;;
23222;SDS011;11780;13.904;100.620;2024-02-26T05:00:59;35.17;;;30.40;;
23222;SDS011;11780;13.904;100.620;2024-02-26T05:03:30;34.50;;;30.95;;
23222;SDS011;11780;13.904;100.620;2024-02-26T05:06:03;33.35;;;29.75;;
23222;SDS011;11780;13.904;100.620;2024-02-26T05:08:35;38.15;;;31.60;;
23222;SDS011;11780;13.904;100.620;2024-02-26T05:11:08;35.75;;;30.50;;
23222;SDS011;11780;13.904;100.620;2024-02-26T05:13:38;35.10;;;30.77;;
23222;SDS011;11780;13.904;100.620;2024-02-26T05:16:09;39.83;;;32.47;;
23222;SDS011;11780;13.904;100.620;2024-02-26T05:18:40;39.10;;;30.95;;
23222;SDS011;11780;13.904;100.620;2024-02-26T05:21:11;38.00;;;30.60;;
23222;SDS011;11780;13.904;100.620;2024-02-26T05:23:42;33.80;;;30.30;;
23222;SDS011;11780;13.904;100.620;2024-02-26T05:28:52;32.30;;;29.00;;
23222;SDS011;11780;13.904;100.620;2024-02-26T05:31:29;33.70;;;30.27;;
23222;SDS011;11780;13.904;100.620;2024-02-26T05:33:59;34.00;;;30.60;;
23222;SDS011;11780;13.904;100.620;2024-02-26T05:39:03;31.25;;;28.15;;
23222;SDS011;11780;13.904;100.620;2024-02-26T05:41:35;33.15;;;29.40;;
23222;SDS011;11780;13.904;100.620;2024-02-26T05:44:06;32.65;;;29.48;;
23222;SDS011;11780;13.904;100.620;2024-02-26T05:46:40;34.45;;;31.17;;
23222;SDS011;11780;13.904;100.620;2024-02-26T05:49:11;36.38;;;32.83;;
23222;SDS011;11780;13.904;100.620;2024-02-26T05:53:06;38.28;;;34.30;;
23222;SDS011;11780;13.904;100.620;2024-02-26T05:55:37;44.72;;;36.60;;
23222;SDS011;11780;13.904;100.620;2024-02-26T05:58:09;42.30;;;36.30;;
23222;SDS011;11780;13.904;100.620;2024-02-26T06:00:41;39.38;;;33.35;;
23222;SDS011;11780;13.904;100.620;2024-02-26T06:03:12;39.17;;;34.97;;
23222;SDS011;11780;13.904;100.620;2024-02-26T06:05:42;40.15;;;35.70;;
23222;SDS011;11780;13.904;100.620;2024-02-26T06:08:13;43.20;;;36.22;;
23222;SDS011;11780;13.904;100.620;2024-02-26T06:10:44;39.83;;;35.45;;
23222;SDS011;11780;13.904;100.620;2024-02-26T06:13:15;39.42;;;35.25;;
23222;SDS011;11780;13.904;100.620;2024-02-26T06:15:46;40.25;;;36.25;;
23222;SDS011;11780;13.904;100.620;2024-02-26T06:18:17;38.22;;;34.28;;
23222;SDS011;11780;13.904;100.620;2024-02-26T06:20:47;38.50;;;34.70;;
23222;SDS011;11780;13.904;100.620;2024-02-26T06:23:18;36.33;;;32.70;;
23222;SDS011;11780;13.904;100.620;2024-02-26T06:25:49;38.80;;;34.90;;
23222;SDS011;11780;13.904;100.620;2024-02-26T06:28:19;38.65;;;33.92;;
23222;SDS011;11780;13.904;100.620;2024-02-26T06:30:50;36.78;;;33.17;;
23222;SDS011;11780;13.904;100.620;2024-02-26T06:33:22;36.70;;;32.95;;
23222;SDS011;11780;13.904;100.620;2024-02-26T06:35:53;37.13;;;33.33;;
23222;SDS011;11780;13.904;100.620;2024-02-26T06:38:25;36.58;;;32.88;;
23222;SDS011;11780;13.904;100.620;2024-02-26T06:40:56;36.60;;;33.25;;
23222;SDS011;11780;13.904;100.620;2024-02-26T06:43:28;34.83;;;31.52;;
23222;SDS011;11780;13.904;100.620;2024-02-26T06:45:59;36.30;;;32.75;;
23222;SDS011;11780;13.904;100.620;2024-02-26T06:48:30;36.92;;;33.28;;
23222;SDS011;11780;13.904;100.620;2024-02-26T06:51:01;35.92;;;32.30;;
23222;SDS011;11780;13.904;100.620;2024-02-26T06:53:33;36.60;;;32.70;;
23222;SDS011;11780;13.904;100.620;2024-02-26T06:56:04;35.72;;;32.10;;
23222;SDS011;11780;13.904;100.620;2024-02-26T06:58:35;35.25;;;31.70;;
23222;SDS011;11780;13.904;100.620;2024-02-26T07:01:05;35.17;;;31.70;;
23222;SDS011;11780;13.904;100.620;2024-02-26T07:03:40;34.47;;;30.95;;
23222;SDS011;11780;13.904;100.620;2024-02-26T07:06:12;35.58;;;32.08;;
23222;SDS011;11780;13.904;100.620;2024-02-26T07:08:44;34.05;;;30.95;;
23222;SDS011;11780;13.904;100.620;2024-02-26T07:11:14;34.63;;;31.20;;
23222;SDS011;11780;13.904;100.620;2024-02-26T07:13:46;35.42;;;31.67;;
23222;SDS011;11780;13.904;100.620;2024-02-26T07:16:17;35.13;;;31.63;;
23222;SDS011;11780;13.904;100.620;2024-02-26T07:18:47;35.53;;;32.10;;
23222;SDS011;11780;13.904;100.620;2024-02-26T07:21:18;35.85;;;31.65;;
23222;SDS011;11780;13.904;100.620;2024-02-26T07:23:51;34.85;;;31.35;;
23222;SDS011;11780;13.904;100.620;2024-02-26T07:26:22;72.22;;;35.00;;
23222;SDS011;11780;13.904;100.620;2024-02-26T07:31:55;39.35;;;33.03;;
23222;SDS011;11780;13.904;100.620;2024-02-26T07:37:11;38.25;;;34.30;;
23222;SDS011;11780;13.904;100.620;2024-02-26T07:39:42;41.60;;;37.72;;
23222;SDS011;11780;13.904;100.620;2024-02-26T07:42:35;46.35;;;41.75;;
23222;SDS011;11780;13.904;100.620;2024-02-26T07:47:37;44.47;;;40.30;;
23222;SDS011;11780;13.904;100.620;2024-02-26T07:50:12;44.33;;;39.92;;
23222;SDS011;11780;13.904;100.620;2024-02-26T07:52:48;42.78;;;38.55;;
23222;SDS011;11780;13.904;100.620;2024-02-26T07:55:21;43.72;;;39.50;;
23222;SDS011;11780;13.904;100.620;2024-02-26T07:57:53;41.08;;;37.08;;
23222;SDS011;11780;13.904;100.620;2024-02-26T08:00:24;42.35;;;38.33;;
23222;SDS011;11780;13.904;100.620;2024-02-26T08:02:55;41.38;;;37.42;;
23222;SDS011;11780;13.904;100.620;2024-02-26T08:05:26;40.63;;;36.50;;
23222;SDS011;11780;13.904;100.620;2024-02-26T08:07:57;41.65;;;37.55;;
23222;SDS011;11780;13.904;100.620;2024-02-26T08:10:27;40.13;;;36.45;;
23222;SDS011;11780;13.904;100.620;2024-02-26T08:13:00;37.63;;;34.05;;
23222;SDS011;11780;13.904;100.620;2024-02-26T08:15:35;38.97;;;35.58;;
23222;SDS011;11780;13.904;100.620;2024-02-26T08:18:09;39.30;;;35.50;;
23222;SDS011;11780;13.904;100.620;2024-02-26T08:20:40;40.13;;;35.97;;
23222;SDS011;11780;13.904;100.620;2024-02-26T08:23:12;35.60;;;32.10;;
23222;SDS011;11780;13.904;100.620;2024-02-26T08:25:42;39.53;;;35.63;;
23222;SDS011;11780;13.904;100.620;2024-02-26T08:28:13;37.78;;;34.10;;
23222;SDS011;11780;13.904;100.620;2024-02-26T08:30:44;37.47;;;33.58;;
23222;SDS011;11780;13.904;100.620;2024-02-26T08:33:15;38.00;;;34.33;;
23222;SDS011;11780;13.904;100.620;2024-02-26T08:35:46;44.20;;;34.88;;
23222;SDS011;11780;13.904;100.620;2024-02-26T08:38:17;71.18;;;37.42;;
23222;SDS011;11780;13.904;100.620;2024-02-26T08:40:48;49.30;;;37.47;;
23222;SDS011;11780;13.904;100.620;2024-02-26T08:43:19;43.72;;;37.33;;
23222;SDS011;11780;13.904;100.620;2024-02-26T08:45:50;53.50;;;40.25;;
23222;SDS011;11780;13.904;100.620;2024-02-26T08:48:21;50.90;;;39.22;;
23222;SDS011;11780;13.904;100.620;2024-02-26T08:50:52;44.45;;;36.22;;
23222;SDS011;11780;13.904;100.620;2024-02-26T08:53:23;40.43;;;36.10;;
23222;SDS011;11780;13.904;100.620;2024-02-26T08:56:04;39.40;;;35.17;;
23222;SDS011;11780;13.904;100.620;2024-02-26T08:58:35;41.33;;;37.10;;
23222;SDS011;11780;13.904;100.620;2024-02-26T09:01:06;41.03;;;36.77;;
23222;SDS011;11780;13.904;100.620;2024-02-26T09:03:37;38.08;;;34.53;;
23222;SDS011;11780;13.904;100.620;2024-02-26T09:08:40;39.95;;;36.20;;
23222;SDS011;11780;13.904;100.620;2024-02-26T09:11:11;42.40;;;38.20;;
23222;SDS011;11780;13.904;100.620;2024-02-26T09:13:42;49.92;;;40.78;;
23222;SDS011;11780;13.904;100.620;2024-02-26T09:16:13;54.30;;;47.08;;
23222;SDS011;11780;13.904;100.620;2024-02-26T09:18:44;50.15;;;44.22;;
23222;SDS011;11780;13.904;100.620;2024-02-26T09:21:15;48.03;;;43.08;;
23222;SDS011;11780;13.904;100.620;2024-02-26T09:23:52;46.38;;;41.35;;
23222;SDS011;11780;13.904;100.620;2024-02-26T09:26:24;44.92;;;40.38;;
23222;SDS011;11780;13.904;100.620;2024-02-26T09:28:54;45.00;;;40.22;;
23222;SDS011;11780;13.904;100.620;2024-02-26T09:33:56;42.30;;;38.17;;
23222;SDS011;11780;13.904;100.620;2024-02-26T09:36:29;44.33;;;39.83;;
23222;SDS011;11780;13.904;100.620;2024-02-26T09:39:03;41.95;;;37.85;;
23222;SDS011;11780;13.904;100.620;2024-02-26T09:41:34;43.15;;;39.05;;
23222;SDS011;11780;13.904;100.620;2024-02-26T09:44:05;40.35;;;36.53;;
23222;SDS011;11780;13.904;100.620;2024-02-26T09:46:36;42.72;;;38.50;;
23222;SDS011;11780;13.904;100.620;2024-02-26T09:51:42;43.60;;;39.45;;
23222;SDS011;11780;13.904;100.620;2024-02-26T09:54:16;44.90;;;40.58;;
23222;SDS011;11780;13.904;100.620;2024-02-26T09:56:47;44.13;;;39.65;;
23222;SDS011;11780;13.904;100.620;2024-02-26T09:59:33;46.05;;;41.35;;
23222;SDS011;11780;13.904;100.620;2024-02-26T10:02:14;44.23;;;39.87;;
23222;SDS011;11780;13.904;100.620;2024-02-26T10:04:45;43.83;;;39.55;;
23222;SDS011;11780;13.904;100.620;2024-02-26T10:07:22;45.17;;;40.92;;
23222;SDS011;11780;13.904;100.620;2024-02-26T10:09:53;44.58;;;40.08;;
23222;SDS011;11780;13.904;100.620;2024-02-26T10:12:24;44.20;;;39.53;;
23222;SDS011;11780;13.904;100.620;2024-02-26T10:14:58;45.50;;;40.88;;
23222;SDS011;11780;13.904;100.620;2024-02-26T10:22:51;42.13;;;38.05;;
23222;SDS011;11780;13.904;100.620;2024-02-26T10:25:22;44.40;;;40.05;;
23222;SDS011;11780;13.904;100.620;2024-02-26T10:30:36;41.38;;;37.22;;
23222;SDS011;11780;13.904;100.620;2024-02-26T10:33:08;42.08;;;38.13;;
23222;SDS011;11780;13.904;100.620;2024-02-26T10:35:40;42.90;;;39.05;;
23222;SDS011;11780;13.904;100.620;2024-02-26T10:38:16;42.05;;;38.00;;
23222;SDS011;11780;13.904;100.620;2024-02-26T10:40:50;42.97;;;38.65;;
23222;SDS011;11780;13.904;100.620;2024-02-26T10:43:20;40.60;;;36.88;;
23222;SDS011;11780;13.904;100.620;2024-02-26T10:45:51;42.90;;;38.85;;
23222;SDS011;11780;13.904;100.620;2024-02-26T10:48:22;41.08;;;36.95;;
23222;SDS011;11780;13.904;100.620;2024-02-26T10:50:54;41.50;;;37.50;;
23222;SDS011;11780;13.904;100.620;2024-02-26T10:53:28;41.22;;;37.10;;
23222;SDS011;11780;13.904;100.620;2024-02-26T10:56:01;42.65;;;38.20;;
23222;SDS011;11780;13.904;100.620;2024-02-26T10:58:46;42.85;;;38.33;;
23222;SDS011;11780;13.904;100.620;2024-02-26T11:04:11;40.90;;;37.08;;
23222;SDS011;11780;13.904;100.620;2024-02-26T11:06:42;41.55;;;37.45;;
23222;SDS011;11780;13.904;100.620;2024-02-26T11:09:15;41.65;;;37.85;;
23222;SDS011;11780;13.904;100.620;2024-02-26T11:11:47;43.10;;;39.10;;
23222;SDS011;11780;13.904;100.620;2024-02-26T11:14:24;42.17;;;37.72;;
23222;SDS011;11780;13.904;100.620;2024-02-26T11:16:56;39.58;;;35.50;;
23222;SDS011;11780;13.904;100.620;2024-02-26T11:19:28;41.70;;;37.40;;
23222;SDS011;11780;13.904;100.620;2024-02-26T11:22:04;39.30;;;35.15;;
23222;SDS011;11780;13.904;100.620;2024-02-26T11:24:48;37.63;;;33.75;;
23222;SDS011;11780;13.904;100.620;2024-02-26T11:27:19;39.08;;;35.17;;
23222;SDS011;11780;13.904;100.620;2024-02-26T11:29:54;37.40;;;33.60;;
23222;SDS011;11780;13.904;100.620;2024-02-26T11:32:27;61.95;;;38.20;;
23222;SDS011;11780;13.904;100.620;2024-02-26T11:35:00;69.60;;;40.85;;
23222;SDS011;11780;13.904;100.620;2024-02-26T11:37:31;56.55;;;36.35;;
23222;SDS011;11780;13.904;100.620;2024-02-26T11:40:13;42.88;;;34.35;;
23222;SDS011;11780;13.904;100.620;2024-02-26T11:42:44;43.42;;;32.50;;
23222;SDS011;11780;13.904;100.620;2024-02-26T11:48:16;33.42;;;29.73;;
23222;SDS011;11780;13.904;100.620;2024-02-26T11:50:51;35.65;;;31.52;;
23222;SDS011;11780;13.904;100.620;2024-02-26T11:59:00;36.20;;;30.13;;
23222;SDS011;11780;13.904;100.620;2024-02-26T12:01:47;34.22;;;30.30;;
23222;SDS011;11780;13.904;100.620;2024-02-26T12:04:23;33.10;;;29.67;;
23222;SDS011;11780;13.904;100.620;2024-02-26T12:06:57;32.55;;;28.90;;
23222;SDS011;11780;13.904;100.620;2024-02-26T12:09:48;32.05;;;28.73;;
23222;SDS011;11780;13.904;100.620;2024-02-26T12:12:19;34.30;;;28.95;;
23222;SDS011;11780;13.904;100.620;2024-02-26T12:14:53;33.85;;;28.75;;
23222;SDS011;11780;13.904;100.620;2024-02-26T12:17:28;33.03;;;29.48;;
23222;SDS011;11780;13.904;100.620;2024-02-26T12:20:09;36.38;;;28.35;;
23222;SDS011;11780;13.904;100.620;2024-02-26T12:22:41;31.35;;;27.90;;
23222;SDS011;11780;13.904;100.620;2024-02-26T12:25:19;30.55;;;27.33;;
23222;SDS011;11780;13.904;100.620;2024-02-26T12:27:52;29.65;;;26.60;;
23222;SDS011;11780;13.904;100.620;2024-02-26T12:30:24;29.90;;;26.80;;
23222;SDS011;11780;13.904;100.620;2024-02-26T12:33:00;30.42;;;26.10;;
23222;SDS011;11780;13.904;100.620;2024-02-26T12:35:32;29.13;;;25.70;;
23222;SDS011;11780;13.904;100.620;2024-02-26T12:38:03;27.75;;;24.77;;
23222;SDS011;11780;13.904;100.620;2024-02-26T12:40:37;29.40;;;25.05;;
23222;SDS011;11780;13.904;100.620;2024-02-26T12:43:08;30.75;;;25.83;;
23222;SDS011;11780;13.904;100.620;2024-02-26T12:45:42;29.92;;;26.85;;
23222;SDS011;11780;13.904;100.620;2024-02-26T12:48:17;29.17;;;26.08;;
23222;SDS011;11780;13.904;100.620;2024-02-26T12:50:50;34.00;;;27.45;;
23222;SDS011;11780;13.904;100.620;2024-02-26T12:53:21;30.20;;;26.52;;
23222;SDS011;11780;13.904;100.620;2024-02-26T12:55:55;31.77;;;27.05;;
23222;SDS011;11780;13.904;100.620;2024-02-26T12:58:27;31.50;;;27.55;;
23222;SDS011;11780;13.904;100.620;2024-02-26T13:00:59;33.38;;;29.08;;
23222;SDS011;11780;13.904;100.620;2024-02-26T13:03:35;31.42;;;28.17;;
23222;SDS011;11780;13.904;100.620;2024-02-26T13:06:07;34.53;;;30.73;;
23222;SDS011;11780;13.904;100.620;2024-02-26T13:08:39;36.10;;;30.27;;
23222;SDS011;11780;13.904;100.620;2024-02-26T13:13:47;33.70;;;30.10;;
23222;SDS011;11780;13.904;100.620;2024-02-26T13:16:19;38.38;;;34.30;;
23222;SDS011;11780;13.904;100.620;2024-02-26T13:18:53;38.08;;;34.13;;
23222;SDS011;11780;13.904;100.620;2024-02-26T13:21:24;39.40;;;35.22;;
23222;SDS011;11780;13.904;100.620;2024-02-26T13:23:57;36.75;;;32.88;;
23222;SDS011;11780;13.904;100.620;2024-02-26T13:26:28;36.42;;;32.30;;
23222;SDS011;11780;13.904;100.620;2024-02-26T13:29:03;36.15;;;32.35;;
23222;SDS011;11780;13.904;100.620;2024-02-26T13:31:39;35.05;;;31.63;;
23222;SDS011;11780;13.904;100.620;2024-02-26T13:34:22;35.40;;;31.60;;
23222;SDS011;11780;13.904;100.620;2024-02-26T13:36:55;33.83;;;30.40;;
23222;SDS011;11780;13.904;100.620;2024-02-26T13:39:27;36.42;;;31.55;;
23222;SDS011;11780;13.904;100.620;2024-02-26T13:41:58;32.05;;;28.63;;
23222;SDS011;11780;13.904;100.620;2024-02-26T13:44:30;30.13;;;27.10;;
23222;SDS011;11780;13.904;100.620;2024-02-26T13:47:01;31.05;;;27.65;;
23222;SDS011;11780;13.904;100.620;2024-02-26T13:49:34;31.27;;;27.95;;
23222;SDS011;11780;13.904;100.620;2024-02-26T13:52:05;34.28;;;29.95;;
23222;SDS011;11780;13.904;100.620;2024-02-26T13:57:08;30.70;;;27.50;;
23222;SDS011;11780;13.904;100.620;2024-02-26T13:59:40;28.95;;;25.95;;
23222;SDS011;11780;13.904;100.620;2024-02-26T14:02:12;28.80;;;25.88;;
23222;SDS011;11780;13.904;100.620;2024-02-26T14:04:46;28.98;;;25.80;;
23222;SDS011;11780;13.904;100.620;2024-02-26T14:09:47;29.80;;;23.90;;
23222;SDS011;11780;13.904;100.620;2024-02-26T14:12:19;26.85;;;23.98;;
23222;SDS011;11780;13.904;100.620;2024-02-26T14:14:51;29.77;;;25.92;;
23222;SDS011;11780;13.904;100.620;2024-02-26T14:17:25;26.48;;;23.65;;
23222;SDS011;11780;13.904;100.620;2024-02-26T14:19:57;28.13;;;24.30;;
23222;SDS011;11780;13.904;100.620;2024-02-26T14:22:27;26.88;;;23.10;;
23222;SDS011;11780;13.904;100.620;2024-02-26T14:25:00;31.58;;;24.17;;
23222;SDS011;11780;13.904;100.620;2024-02-26T14:27:31;26.45;;;23.80;;
23222;SDS011;11780;13.904;100.620;2024-02-26T14:32:35;27.15;;;24.35;;
23222;SDS011;11780;13.904;100.620;2024-02-26T14:35:08;24.85;;;22.42;;
23222;SDS011;11780;13.904;100.620;2024-02-26T14:37:44;26.17;;;23.38;;
23222;SDS011;11780;13.904;100.620;2024-02-26T14:40:19;26.10;;;23.40;;
23222;SDS011;11780;13.904;100.620;2024-02-26T14:42:49;33.87;;;30.30;;
23222;SDS011;11780;13.904;100.620;2024-02-26T14:45:20;34.10;;;29.05;;
23222;SDS011;11780;13.904;100.620;2024-02-26T14:47:52;31.15;;;27.50;;
23222;SDS011;11780;13.904;100.620;2024-02-26T14:50:24;30.80;;;26.80;;
23222;SDS011;11780;13.904;100.620;2024-02-26T14:52:56;30.92;;;27.73;;
23222;SDS011;11780;13.904;100.620;2024-02-26T14:55:29;29.88;;;26.00;;
23222;SDS011;11780;13.904;100.620;2024-02-26T14:58:06;28.88;;;25.80;;
23222;SDS011;11780;13.904;100.620;2024-02-26T15:00:56;26.98;;;24.27;;
23222;SDS011;11780;13.904;100.620;2024-02-26T15:06:25;30.90;;;24.85;;
23222;SDS011;11780;13.904;100.620;2024-02-26T15:08:59;29.20;;;23.92;;
23222;SDS011;11780;13.904;100.620;2024-02-26T15:11:55;28.60;;;24.38;;
23222;SDS011;11780;13.904;100.620;2024-02-26T15:14:27;28.35;;;24.38;;
23222;SDS011;11780;13.904;100.620;2024-02-26T15:17:02;26.77;;;23.92;;
23222;SDS011;11780;13.904;100.620;2024-02-26T15:22:36;26.88;;;23.98;;
23222;SDS011;11780;13.904;100.620;2024-02-26T15:25:13;28.00;;;24.90;;
23222;SDS011;11780;13.904;100.620;2024-02-26T15:27:45;27.85;;;24.23;;
23222;SDS011;11780;13.904;100.620;2024-02-26T15:30:22;30.67;;;24.52;;
23222;SDS011;11780;13.904;100.620;2024-02-26T15:33:49;26.98;;;24.20;;
23222;SDS011;11780;13.904;100.620;2024-02-26T15:38:51;28.33;;;25.35;;
23222;SDS011;11780;13.904;100.620;2024-02-26T15:41:24;27.48;;;24.67;;
23222;SDS011;11780;13.904;100.620;2024-02-26T15:43:55;27.33;;;24.63;;
23222;SDS011;11780;13.904;100.620;2024-02-26T15:49:20;27.05;;;24.23;;